createdAt,value
2018-09-05T00:00:48.520Z,15.80
2018-09-05T00:03:16.859Z,15.70
2018-09-05T00:05:45.176Z,15.70
2018-09-05T00:08:13.611Z,15.60
2018-09-05T00:10:42.658Z,15.60
2018-09-05T00:13:12.459Z,15.60
2018-09-05T00:15:44.199Z,15.50
2018-09-05T00:18:15.365Z,15.50
2018-09-05T00:20:46.772Z,15.50
2018-09-05T00:23:18.256Z,15.40
2018-09-05T00:25:48.947Z,15.40
2018-09-05T00:28:19.887Z,15.40
2018-09-05T00:30:50.886Z,15.40
2018-09-05T00:33:23.916Z,15.30
2018-09-05T00:35:55.288Z,15.30
2018-09-05T00:38:27.297Z,15.30
2018-09-05T00:40:58.309Z,15.30
2018-09-05T00:43:26.923Z,15.20
2018-09-05T00:45:55.261Z,15.20
2018-09-05T00:48:23.666Z,15.20
2018-09-05T00:50:52.046Z,15.20
2018-09-05T00:53:20.436Z,15.20
2018-09-05T00:55:48.842Z,15.20
2018-09-05T00:58:17.234Z,15.10
2018-09-05T01:00:46.698Z,15.10
2018-09-05T01:03:15.077Z,15.10
2018-09-05T01:05:43.443Z,15.00
2018-09-05T01:08:11.823Z,15.00
2018-09-05T01:10:40.160Z,15.00
2018-09-05T01:13:09.306Z,14.90
2018-09-05T01:15:37.701Z,14.90
2018-09-05T01:18:06.166Z,14.80
2018-09-05T01:20:34.702Z,14.80
2018-09-05T01:23:03.700Z,14.80
2018-09-05T01:25:32.204Z,14.70
2018-09-05T01:28:00.753Z,14.70
2018-09-05T01:30:29.571Z,14.60
2018-09-05T01:32:59.722Z,14.60
2018-09-05T01:35:28.304Z,14.60
2018-09-05T01:37:57.786Z,14.60
2018-09-05T01:40:26.235Z,14.60
2018-09-05T01:42:55.025Z,14.50
2018-09-05T01:45:23.396Z,14.50
2018-09-05T01:47:53.751Z,14.40
2018-09-05T01:50:34.604Z,14.40
2018-09-05T01:53:03.016Z,14.30
2018-09-05T01:55:31.510Z,14.30
2018-09-05T01:57:59.892Z,14.30
2018-09-05T02:00:33.336Z,14.30
2018-09-05T02:03:02.204Z,14.20
2018-09-05T02:05:30.658Z,14.20
2018-09-05T02:07:59.820Z,14.10
2018-09-05T02:10:28.342Z,14.10
2018-09-05T02:12:56.733Z,14.10
2018-09-05T02:15:25.127Z,14.10
2018-09-05T02:17:53.527Z,14.00
2018-09-05T02:20:21.943Z,14.00
2018-09-05T02:22:50.411Z,14.00
2018-09-05T02:25:18.766Z,14.00
2018-09-05T02:27:47.177Z,13.90
2018-09-05T02:30:18.148Z,13.90
2018-09-05T02:32:46.499Z,13.90
2018-09-05T02:35:14.946Z,13.90
2018-09-05T02:37:43.731Z,13.90
2018-09-05T02:40:12.342Z,13.80
2018-09-05T02:42:40.712Z,13.80
2018-09-05T02:45:09.109Z,13.80
2018-09-05T02:47:37.495Z,13.70
2018-09-05T02:50:05.862Z,13.70
2018-09-05T02:52:34.519Z,13.70
2018-09-05T02:55:02.971Z,13.60
2018-09-05T02:57:31.403Z,13.60
2018-09-05T02:59:59.832Z,13.60
2018-09-05T03:02:28.183Z,13.50
2018-09-05T03:04:56.526Z,13.50
2018-09-05T03:07:25.958Z,13.50
2018-09-05T03:09:54.331Z,13.50
2018-09-05T03:12:22.913Z,13.50
2018-09-05T03:14:52.844Z,13.50
2018-09-05T03:17:21.660Z,13.50
2018-09-05T03:19:50.173Z,13.40
2018-09-05T03:22:18.552Z,13.40
2018-09-05T03:24:47.046Z,13.40
2018-09-05T03:27:15.403Z,13.40
2018-09-05T03:29:44.010Z,13.30
2018-09-05T03:32:12.424Z,13.30
2018-09-05T03:34:40.738Z,13.30
2018-09-05T03:37:09.119Z,13.30
2018-09-05T03:39:37.538Z,13.30
2018-09-05T03:42:06.084Z,13.30
2018-09-05T03:44:34.510Z,13.30
2018-09-05T03:47:02.893Z,13.20
2018-09-05T03:49:31.290Z,13.20
2018-09-05T03:51:59.664Z,13.20
2018-09-05T03:54:28.088Z,13.20
2018-09-05T03:56:56.427Z,13.20
2018-09-05T03:59:24.966Z,13.20
2018-09-05T04:01:53.483Z,13.20
2018-09-05T04:04:22.614Z,13.20
2018-09-05T04:06:51.031Z,13.20
2018-09-05T04:09:19.422Z,13.20
2018-09-05T04:11:47.862Z,13.10
2018-09-05T04:14:16.200Z,13.10
2018-09-05T04:16:44.616Z,13.10
2018-09-05T04:19:12.984Z,13.00
2018-09-05T04:21:41.336Z,12.90
2018-09-05T04:24:09.681Z,12.80
2018-09-05T04:26:38.163Z,12.80
2018-09-05T04:29:06.628Z,12.80
2018-09-05T04:31:35.034Z,12.80
2018-09-05T04:34:03.377Z,12.80
2018-09-05T04:36:31.760Z,12.70
2018-09-05T04:39:00.114Z,12.70
2018-09-05T04:41:28.569Z,12.70
2018-09-05T04:43:56.964Z,12.60
2018-09-05T04:46:25.335Z,12.60
2018-09-05T04:48:54.266Z,12.60
2018-09-05T04:51:22.595Z,12.60
2018-09-05T04:53:51.061Z,12.60
2018-09-05T04:56:19.501Z,12.60
2018-09-05T04:58:47.971Z,12.60
2018-09-05T05:01:16.319Z,12.60
2018-09-05T05:03:44.748Z,12.60
2018-09-05T05:06:13.401Z,12.60
2018-09-05T05:08:41.780Z,12.60
2018-09-05T05:11:10.345Z,12.60
2018-09-05T05:13:38.748Z,12.70
2018-09-05T05:16:07.458Z,12.70
2018-09-05T05:18:35.987Z,12.80
2018-09-05T05:21:04.346Z,13.00
2018-09-05T05:23:32.922Z,13.20
2018-09-05T05:26:01.427Z,13.30
2018-09-05T05:28:29.772Z,13.50
2018-09-05T05:30:58.145Z,13.60
2018-09-05T05:33:26.515Z,13.70
2018-09-05T05:35:54.988Z,13.90
2018-09-05T05:38:23.438Z,14.00
2018-09-05T05:40:51.950Z,14.20
2018-09-05T05:43:20.285Z,14.40
2018-09-05T05:45:48.693Z,14.50
2018-09-05T05:48:17.338Z,14.70
2018-09-05T05:50:45.707Z,14.80
2018-09-05T05:53:14.047Z,15.00
2018-09-05T05:55:42.496Z,15.20
2018-09-05T05:58:10.891Z,15.40
2018-09-05T06:00:39.274Z,15.70
2018-09-05T06:03:07.701Z,15.80
2018-09-05T06:05:36.055Z,15.90
2018-09-05T06:08:04.480Z,16.10
2018-09-05T06:10:32.825Z,16.40
2018-09-05T06:13:01.221Z,16.60
2018-09-05T06:15:29.589Z,16.90
2018-09-05T06:17:58.080Z,17.10
2018-09-05T06:20:26.632Z,17.30
2018-09-05T06:22:55.012Z,17.60
2018-09-05T06:25:23.359Z,17.90
2018-09-05T06:27:52.048Z,18.20
2018-09-05T06:30:20.351Z,18.50
2018-09-05T06:32:48.876Z,18.90
2018-09-05T06:35:17.301Z,19.30
2018-09-05T06:37:45.604Z,19.60
2018-09-05T06:40:14.039Z,19.90
2018-09-05T06:42:42.664Z,20.20
2018-09-05T06:45:11.160Z,20.50
2018-09-05T06:47:39.473Z,20.70
2018-09-05T06:50:08.066Z,20.90
2018-09-05T06:52:36.499Z,21.20
2018-09-05T06:55:04.836Z,21.50
2018-09-05T06:57:33.227Z,21.90
2018-09-05T07:00:01.659Z,22.10
2018-09-05T07:02:30.151Z,22.50
2018-09-05T07:04:58.505Z,22.70
2018-09-05T07:07:27.508Z,22.80
2018-09-05T07:09:55.961Z,23.10
2018-09-05T07:12:24.272Z,23.40
2018-09-05T07:14:52.608Z,23.70
2018-09-05T07:17:20.993Z,24.20
2018-09-05T07:19:49.386Z,24.40
2018-09-05T07:22:17.898Z,24.50
2018-09-05T07:24:46.268Z,24.40
2018-09-05T07:27:14.680Z,23.90
2018-09-05T07:29:43.468Z,23.90
2018-09-05T07:32:12.089Z,23.90
2018-09-05T07:34:40.689Z,24.00
2018-09-05T07:37:09.214Z,23.90
2018-09-05T07:39:37.921Z,23.70
2018-09-05T07:42:06.577Z,23.60
2018-09-05T07:44:35.251Z,23.80
2018-09-05T07:47:04.926Z,23.90
2018-09-05T07:49:33.846Z,24.00
2018-09-05T07:52:03.021Z,24.30
2018-09-05T07:54:31.710Z,24.60
2018-09-05T07:57:02.530Z,24.80
2018-09-05T07:59:32.284Z,25.10
2018-09-05T08:02:03.690Z,25.30
2018-09-05T08:04:32.709Z,25.50
2018-09-05T08:07:01.479Z,25.80
2018-09-05T08:09:30.231Z,26.00
2018-09-05T08:11:59.102Z,25.90
2018-09-05T08:14:27.836Z,26.00
2018-09-05T08:16:56.726Z,26.00
2018-09-05T08:19:27.000Z,26.20
2018-09-05T08:21:55.805Z,26.50
2018-09-05T08:24:24.735Z,26.60
2018-09-05T08:26:53.501Z,26.70
2018-09-05T08:29:21.942Z,26.70
2018-09-05T08:31:51.340Z,26.30
2018-09-05T08:34:19.808Z,26.70
2018-09-05T08:36:48.426Z,26.90
2018-09-05T08:39:17.228Z,27.30
2018-09-05T08:41:45.562Z,27.20
2018-09-05T08:44:14.110Z,27.20
2018-09-05T08:46:42.356Z,27.40
2018-09-05T08:49:10.744Z,27.80
2018-09-05T08:51:39.088Z,28.10
2018-09-05T08:54:07.506Z,28.00
2018-09-05T08:56:35.832Z,28.30
2018-09-05T08:59:04.252Z,28.40
2018-09-05T09:01:32.597Z,28.60
2018-09-05T09:04:00.954Z,28.70
2018-09-05T09:06:29.306Z,28.60
2018-09-05T09:08:57.707Z,28.90
2018-09-05T09:11:26.143Z,29.10
2018-09-05T09:13:54.506Z,29.30
2018-09-05T09:16:23.176Z,29.20
2018-09-05T09:18:51.562Z,29.50
2018-09-05T09:21:26.563Z,29.60
2018-09-05T09:23:55.142Z,29.80
2018-09-05T09:26:23.628Z,29.70
2018-09-05T09:28:52.022Z,29.60
2018-09-05T09:31:20.402Z,29.40
2018-09-05T09:33:48.732Z,29.30
2018-09-05T09:36:17.178Z,29.70
2018-09-05T09:38:45.532Z,29.10
2018-09-05T09:41:13.945Z,29.20
2018-09-05T09:43:42.401Z,29.80
2018-09-05T09:46:10.771Z,29.80
2018-09-05T09:48:39.134Z,30.20
2018-09-05T09:51:07.544Z,30.30
2018-09-05T09:53:36.041Z,30.70
2018-09-05T09:56:04.424Z,30.50
2018-09-05T09:58:32.831Z,30.70
2018-09-05T10:01:06.553Z,31.00
2018-09-05T10:03:40.487Z,31.10
2018-09-05T10:06:14.106Z,31.40
2018-09-05T10:09:49.461Z,31.40
2018-09-05T10:12:23.184Z,31.30
2018-09-05T10:15:56.321Z,31.60
2018-09-05T10:18:27.483Z,31.70
2018-09-05T10:20:56.564Z,31.90
2018-09-05T10:23:25.129Z,32.20
2018-09-05T10:25:53.484Z,32.50
2018-09-05T10:28:22.152Z,32.80
2018-09-05T10:30:51.066Z,32.70
2018-09-05T10:33:19.504Z,32.80
2018-09-05T10:35:48.285Z,32.90
2018-09-05T10:38:16.939Z,33.10
2018-09-05T10:40:45.617Z,33.30
2018-09-05T10:43:13.935Z,32.90
2018-09-05T10:45:42.358Z,32.80
2018-09-05T10:48:10.827Z,31.20
2018-09-05T10:50:39.212Z,31.60
2018-09-05T10:53:07.815Z,31.60
2018-09-05T10:55:37.220Z,32.20
2018-09-05T10:58:05.695Z,32.50
2018-09-05T11:00:34.012Z,32.90
2018-09-05T11:03:02.391Z,33.10
2018-09-05T11:05:30.711Z,33.50
2018-09-05T11:07:59.112Z,33.50
2018-09-05T11:10:27.601Z,33.40
2018-09-05T11:12:55.906Z,33.30
2018-09-05T11:15:24.233Z,33.10
2018-09-05T11:17:52.674Z,33.10
2018-09-05T11:20:21.764Z,33.00
2018-09-05T11:22:50.083Z,33.00
2018-09-05T11:25:18.568Z,33.40
2018-09-05T11:27:47.035Z,33.40
2018-09-05T11:30:15.254Z,33.70
2018-09-05T11:32:43.727Z,33.30
2018-09-05T11:35:12.053Z,33.50
2018-09-05T11:37:40.527Z,33.90
2018-09-05T11:40:09.570Z,34.00
2018-09-05T11:42:38.010Z,33.80
2018-09-05T11:45:06.439Z,33.70
2018-09-05T11:47:34.750Z,33.90
2018-09-05T11:50:03.234Z,34.00
2018-09-05T11:52:31.582Z,33.80
2018-09-05T11:54:59.958Z,33.60
2018-09-05T11:57:28.380Z,33.40
2018-09-05T11:59:56.733Z,33.50
2018-09-05T12:02:25.240Z,33.80
2018-09-05T12:04:53.536Z,33.60
2018-09-05T12:07:22.000Z,33.60
2018-09-05T12:09:50.348Z,33.70
2018-09-05T12:12:18.852Z,33.70
2018-09-05T12:14:47.203Z,33.30
2018-09-05T12:17:15.877Z,32.80
2018-09-05T12:19:44.271Z,32.30
2018-09-05T12:22:12.780Z,31.80
2018-09-05T12:24:41.960Z,31.90
2018-09-05T12:27:10.316Z,32.20
2018-09-05T12:29:38.761Z,32.50
2018-09-05T12:32:07.094Z,32.90
2018-09-05T12:34:35.450Z,33.30
2018-09-05T12:37:03.813Z,33.50
2018-09-05T12:39:32.285Z,33.30
2018-09-05T12:42:00.633Z,33.70
2018-09-05T12:44:29.071Z,33.70
2018-09-05T12:46:57.456Z,34.00
2018-09-05T12:49:26.074Z,34.20
2018-09-05T12:51:54.423Z,34.00
2018-09-05T12:54:22.844Z,34.30
2018-09-05T12:56:51.185Z,34.20
2018-09-05T12:59:19.546Z,34.50
2018-09-05T13:01:47.964Z,34.70
2018-09-05T13:04:16.338Z,34.80
2018-09-05T13:06:44.684Z,34.90
2018-09-05T13:09:14.108Z,34.90
2018-09-05T13:11:42.833Z,34.60
2018-09-05T13:14:11.125Z,34.30
2018-09-05T13:16:39.624Z,34.20
2018-09-05T13:19:08.028Z,33.90
2018-09-05T13:21:36.363Z,34.30
2018-09-05T13:24:04.726Z,34.50
2018-09-05T13:26:33.178Z,34.50
2018-09-05T13:29:01.544Z,34.30
2018-09-05T13:31:29.950Z,34.20
2018-09-05T13:33:58.275Z,34.10
2018-09-05T13:36:26.644Z,34.20
2018-09-05T13:38:55.057Z,34.90
2018-09-05T13:41:23.446Z,35.00
2018-09-05T13:43:51.771Z,35.30
2018-09-05T13:46:20.167Z,35.60
2018-09-05T13:48:48.486Z,35.80
2018-09-05T13:51:16.877Z,35.80
2018-09-05T13:53:45.245Z,36.00
2018-09-05T13:56:13.632Z,36.10
2018-09-05T13:58:42.002Z,36.10
2018-09-05T14:01:10.491Z,36.30
2018-09-05T14:03:39.894Z,36.10
2018-09-05T14:06:08.253Z,36.50
2018-09-05T14:08:37.538Z,36.90
2018-09-05T14:11:06.735Z,36.90
2018-09-05T14:13:35.186Z,37.30
2018-09-05T14:16:03.510Z,37.30
2018-09-05T14:18:31.976Z,37.20
2018-09-05T14:21:00.600Z,37.30
2018-09-05T14:23:29.791Z,37.60
2018-09-05T14:25:58.464Z,37.70
2018-09-05T14:28:27.088Z,37.70
2018-09-05T14:30:55.615Z,37.40
2018-09-05T14:33:24.033Z,37.10
2018-09-05T14:35:52.431Z,37.20
2018-09-05T14:38:21.822Z,37.20
2018-09-05T14:40:50.211Z,37.30
2018-09-05T14:43:18.909Z,37.20
2018-09-05T14:45:47.283Z,36.90
2018-09-05T14:48:15.782Z,36.80
2018-09-05T14:50:44.131Z,37.00
2018-09-05T14:53:12.555Z,36.80
2018-09-05T14:55:40.968Z,36.60
2018-09-05T14:58:09.313Z,36.80
2018-09-05T15:00:37.681Z,36.40
2018-09-05T15:03:06.083Z,36.70
2018-09-05T15:05:34.429Z,36.80
2018-09-05T15:08:04.965Z,36.40
2018-09-05T15:10:34.408Z,36.30
2018-09-05T15:13:04.639Z,36.40
2018-09-05T15:15:33.230Z,35.60
2018-09-05T15:18:02.250Z,35.30
2018-09-05T15:20:31.347Z,35.00
2018-09-05T15:22:59.711Z,35.00
2018-09-05T15:25:28.216Z,34.90
2018-09-05T15:27:58.150Z,34.90
2018-09-05T15:30:26.785Z,34.90
2018-09-05T15:32:56.082Z,34.80
2018-09-05T15:35:24.915Z,34.70
2018-09-05T15:37:53.429Z,34.80
2018-09-05T15:40:22.641Z,34.60
2018-09-05T15:42:51.067Z,34.60
2018-09-05T15:45:19.496Z,34.60
2018-09-05T15:47:48.126Z,34.50
2018-09-05T15:50:16.589Z,34.30
2018-09-05T15:52:46.146Z,34.00
2018-09-05T15:55:14.778Z,34.00
2018-09-05T15:57:44.198Z,33.70
2018-09-05T16:00:12.689Z,33.70
2018-09-05T16:02:41.299Z,33.50
2018-09-05T16:05:09.835Z,33.20
2018-09-05T16:07:38.517Z,33.00
2018-09-05T16:10:07.023Z,32.70
2018-09-05T16:12:35.452Z,32.50
2018-09-05T16:15:04.066Z,32.30
2018-09-05T16:17:32.575Z,32.00
2018-09-05T16:20:01.028Z,32.00
2018-09-05T16:22:29.506Z,31.80
2018-09-05T16:24:57.919Z,31.60
2018-09-05T16:27:26.761Z,31.30
2018-09-05T16:29:55.635Z,30.90
2018-09-05T16:32:24.297Z,30.60
2018-09-05T16:34:52.972Z,30.50
2018-09-05T16:37:21.596Z,29.90
2018-09-05T16:39:50.099Z,29.60
2018-09-05T16:42:19.061Z,28.90
2018-09-05T16:44:48.017Z,28.60
2018-09-05T16:47:16.771Z,28.30
2018-09-05T16:49:45.385Z,28.00
2018-09-05T16:52:13.763Z,27.70
2018-09-05T16:54:42.330Z,27.50
2018-09-05T16:57:15.298Z,27.30
2018-09-05T16:59:43.773Z,27.10
2018-09-05T17:02:12.138Z,26.90
2018-09-05T17:04:40.559Z,26.80
2018-09-05T17:07:08.942Z,26.60
2018-09-05T17:09:37.349Z,26.50
2018-09-05T17:12:05.721Z,26.30
2018-09-05T17:14:34.077Z,26.20
2018-09-05T17:17:02.556Z,26.10
2018-09-05T17:19:30.968Z,25.90
2018-09-05T17:21:59.341Z,25.80
2018-09-05T17:24:28.070Z,25.60
2018-09-05T17:26:56.436Z,25.50
2018-09-05T17:29:24.775Z,25.30
2018-09-05T17:31:53.168Z,25.20
2018-09-05T17:34:21.600Z,25.10
2018-09-05T17:36:50.017Z,25.00
2018-09-05T17:39:18.442Z,24.80
2018-09-05T17:41:46.952Z,24.70
2018-09-05T17:44:15.248Z,24.50
2018-09-05T17:46:43.641Z,24.40
2018-09-05T17:49:12.051Z,24.20
2018-09-05T17:51:40.527Z,24.10
2018-09-05T17:54:08.935Z,23.90
2018-09-05T17:56:38.297Z,23.80
2018-09-05T17:59:06.652Z,23.70
2018-09-05T18:01:35.171Z,23.60
2018-09-05T18:04:03.649Z,23.50
2018-09-05T18:06:31.999Z,23.40
2018-09-05T18:09:00.542Z,23.30
2018-09-05T18:11:29.111Z,23.20
2018-09-05T18:13:57.498Z,23.10
2018-09-05T18:16:25.986Z,23.00
2018-09-05T18:18:54.335Z,22.90
2018-09-05T18:21:22.770Z,22.80
2018-09-05T18:23:51.360Z,22.70
2018-09-05T18:26:20.560Z,22.60
2018-09-05T18:28:49.098Z,22.50
2018-09-05T18:31:17.506Z,22.40
2018-09-05T18:33:45.975Z,22.30
2018-09-05T18:36:14.344Z,22.20
2018-09-05T18:38:42.752Z,22.10
2018-09-05T18:41:11.181Z,22.00
2018-09-05T18:43:39.571Z,21.90
2018-09-05T18:46:08.009Z,21.90
2018-09-05T18:48:36.622Z,21.80
2018-09-05T18:51:05.098Z,21.70
2018-09-05T18:53:33.482Z,21.60
2018-09-05T18:56:01.890Z,21.60
2018-09-05T18:58:30.344Z,21.50
2018-09-05T19:00:58.685Z,21.40
2018-09-05T19:03:27.274Z,21.30
2018-09-05T19:05:55.728Z,21.30
2018-09-05T19:08:24.184Z,21.20
2018-09-05T19:10:52.646Z,21.10
2018-09-05T19:13:21.104Z,21.00
2018-09-05T19:15:49.482Z,21.00
2018-09-05T19:18:18.312Z,20.90
2018-09-05T19:20:47.420Z,20.90
2018-09-05T19:23:15.915Z,20.80
2018-09-05T19:25:44.448Z,20.70
2018-09-05T19:28:13.258Z,20.60
2018-09-05T19:30:42.790Z,20.60
2018-09-05T19:33:12.217Z,20.50
2018-09-05T19:35:40.616Z,20.40
2018-09-05T19:38:09.136Z,20.30
2018-09-05T19:40:38.162Z,20.20
2018-09-05T19:43:06.677Z,20.20
2018-09-05T19:45:35.275Z,20.10
2018-09-05T19:48:04.075Z,20.00
2018-09-05T19:50:32.853Z,19.90
2018-09-05T19:53:02.090Z,19.80
2018-09-05T19:55:30.533Z,19.70
2018-09-05T19:57:59.231Z,19.60
2018-09-05T20:00:27.658Z,19.50
2018-09-05T20:02:56.223Z,19.40
2018-09-05T20:05:25.492Z,19.40
2018-09-05T20:07:54.046Z,19.30
2018-09-05T20:10:23.139Z,19.20
2018-09-05T20:12:52.191Z,19.20
2018-09-05T20:15:20.730Z,19.10
2018-09-05T20:17:48.964Z,19.00
2018-09-05T20:20:17.569Z,19.00
2018-09-05T20:22:47.691Z,18.90
2018-09-05T20:25:16.357Z,18.90
2018-09-05T20:27:45.089Z,18.80
2018-09-05T20:30:13.848Z,18.80
2018-09-05T20:32:42.472Z,18.70
2018-09-05T20:35:11.127Z,18.60
2018-09-05T20:37:39.727Z,18.60
2018-09-05T20:40:08.109Z,18.50
2018-09-05T20:42:36.530Z,18.40
2018-09-05T20:45:05.276Z,18.40
2018-09-05T20:47:35.454Z,18.30
2018-09-05T20:50:04.914Z,18.20
2018-09-05T20:52:33.440Z,18.20
2018-09-05T20:55:01.952Z,18.10
2018-09-05T20:57:30.373Z,18.10
2018-09-05T20:59:58.812Z,18.00
2018-09-05T21:02:28.173Z,17.90
2018-09-05T21:04:56.651Z,17.90
2018-09-05T21:07:25.173Z,17.80
2018-09-05T21:09:53.856Z,17.70
2018-09-05T21:12:24.692Z,17.70
2018-09-05T21:14:53.679Z,17.60
2018-09-05T21:17:22.191Z,17.50
2018-09-05T21:19:52.369Z,17.50
2018-09-05T21:22:20.753Z,17.40
2018-09-05T21:24:49.219Z,17.30
2018-09-05T21:27:17.662Z,17.30
2018-09-05T21:29:46.366Z,17.20
2018-09-05T21:32:14.817Z,17.10
2018-09-05T21:34:43.217Z,17.00
2018-09-05T21:37:11.562Z,17.00
2018-09-05T21:39:39.995Z,16.90
2018-09-05T21:42:08.410Z,16.90
2018-09-05T21:44:36.729Z,16.80
2018-09-05T21:47:05.251Z,16.80
2018-09-05T21:49:33.915Z,16.70
2018-09-05T21:52:02.355Z,16.60
2018-09-05T21:54:30.694Z,16.60
2018-09-05T21:56:59.050Z,16.60
2018-09-05T21:59:27.471Z,16.50
2018-09-05T22:01:56.510Z,16.40
2018-09-05T22:04:24.952Z,16.40
2018-09-05T22:06:53.355Z,16.30
2018-09-05T22:09:21.670Z,16.30
2018-09-05T22:11:50.250Z,16.20
2018-09-05T22:14:18.629Z,16.20
2018-09-05T22:16:46.950Z,16.10
2018-09-05T22:19:15.284Z,16.10
2018-09-05T22:21:43.650Z,16.00
2018-09-05T22:24:11.976Z,16.00
2018-09-05T22:26:40.349Z,15.90
2018-09-05T22:29:14.385Z,15.90
2018-09-05T22:31:42.751Z,15.90
2018-09-05T22:34:11.221Z,15.80
2018-09-05T22:36:41.186Z,15.80
2018-09-05T22:39:10.522Z,15.80
2018-09-05T22:41:38.835Z,15.70
2018-09-05T22:44:18.668Z,15.60
2018-09-05T22:46:58.551Z,15.50
2018-09-05T22:51:48.373Z,15.50
2018-09-05T22:54:35.744Z,15.40
2018-09-05T22:57:27.416Z,15.40
2018-09-05T23:00:06.941Z,15.30
2018-09-05T23:02:52.161Z,15.30
2018-09-05T23:07:33.683Z,15.20
2018-09-05T23:10:13.696Z,15.20
2018-09-05T23:12:53.328Z,15.10
2018-09-05T23:15:33.065Z,15.10
2018-09-05T23:18:13.201Z,15.00
2018-09-05T23:20:49.499Z,15.00
2018-09-05T23:23:28.913Z,14.90
2018-09-05T23:25:57.359Z,14.90
2018-09-05T23:28:25.749Z,14.90
2018-09-05T23:30:54.083Z,14.80
2018-09-05T23:33:22.659Z,14.80
2018-09-05T23:35:51.807Z,14.70
2018-09-05T23:38:20.564Z,14.70
2018-09-05T23:40:48.949Z,14.70
2018-09-05T23:43:32.275Z,14.60
2018-09-05T23:46:01.564Z,14.60
2018-09-05T23:48:29.885Z,14.60
2018-09-05T23:50:59.549Z,14.50
2018-09-05T23:53:28.184Z,14.50
2018-09-05T23:55:57.372Z,14.50
2018-09-05T23:58:25.827Z,14.40
